Date,TemperatureHighF,TemperatureAvgF,TemperatureLowF,DewpointHighF,DewpointAvgF,DewpointLowF,HumidityHigh,HumidityAvg,HumidityLow,PressureMaxIn,PressureMinIn,WindSpeedMaxMPH,WindSpeedAvgMPH,GustSpeedMaxMPH,PrecipitationSumIn
2013-1-1,30.4,16.8,7.2,29.0,10.5,1.0,93,76,66,29.99,29.67,6,1,13,0.02
2013-1-2,14.0,7.9,-3.0,11.0,2.8,-8.0,87,79,71,30.29,29.88,14,2,19,0.02
2013-1-3,14.4,3.1,-5.9,9.0,-3.2,-10.0,83,75,65,30.30,29.92,6,1,10,0.00
2013-1-4,33.9,27.0,15.5,27.0,21.7,10.0,88,80,75,29.91,29.72,13,4,19,0.00
2013-1-5,32.9,23.3,12.7,27.0,15.4,8.0,86,72,61,30.25,29.77,8,2,15,0.00
2013-1-6,33.4,26.1,17.4,29.0,21.9,13.0,90,84,75,30.18,29.88,7,1,12,0.02
2013-1-7,23.1,17.2,11.8,18.0,12.6,8.0,89,82,72,30.38,30.02,9,2,15,0.01
2013-1-8,36.6,29.9,23.9,26.0,22.6,19.0,84,75,63,30.36,30.18,9,2,17,0.00
2013-1-9,41.0,32.3,22.4,32.0,25.1,19.0,89,75,62,30.36,29.86,12,3,23,0.01
2013-1-10,39.3,35.3,27.8,33.0,27.0,23.0,91,72,64,30.57,30.03,7,1,20,0.00
2013-1-11,38.0,32.7,25.0,36.0,26.1,22.0,93,77,58,30.54,30.06,10,3,18,0.00
2013-1-12,46.5,41.9,38.3,42.0,39.4,36.0,94,90,84,30.10,30.00,12,3,21,0.00
2013-1-13,48.0,44.4,40.1,46.0,42.3,39.0,95,92,86,30.09,29.81,10,3,22,0.00
2013-1-14,49.0,43.2,35.2,46.0,35.9,26.0,93,76,60,30.29,29.73,11,3,19,0.00
2013-1-15,35.7,30.6,25.4,27.0,21.3,19.0,79,69,59,30.35,30.24,6,1,11,0.00
2013-1-16,31.0,29.6,28.4,29.0,25.3,21.0,92,84,69,30.23,29.76,6,1,8,0.02
2013-1-17,31.9,19.1,5.8,29.0,10.8,-5.0,91,71,50,30.23,29.76,11,3,16,0.00
2013-1-18,21.5,11.4,-0.5,10.0,-1.5,-8.0,80,57,37,30.37,30.19,7,2,15,0.00
2013-1-19,40.2,30.0,19.1,26.0,19.5,11.0,90,66,56,30.22,29.70,14,4,18,0.01
2013-1-20,42.0,32.6,14.5,32.0,21.5,5.0,86,64,52,29.98,29.35,21,5,28,0.00
2013-1-21,17.8,10.8,6.0,7.0,3.4,0.0,84,72,59,30.08,29.85,8,1,11,0.00
2013-1-22,11.5,6.9,0.8,5.0,-0.0,-11.0,85,74,51,30.12,29.83,9,1,11,0.00
2013-1-23,-0.1,-4.2,-8.0,-8.0,-13.8,-17.0,72,64,55,30.24,30.12,5,2,9,0.00
2013-1-24,10.3,1.1,-8.4,-5.0,-9.7,-15.0,77,62,46,30.41,30.18,7,1,13,0.00
2013-1-25,13.1,6.9,-2.4,4.0,-3.1,-9.0,79,64,52,30.42,30.14,5,1,7,0.00
2013-1-26,14.6,9.2,1.6,5.0,1.3,-3.0,82,71,53,30.34,30.13,10,1,12,0.00
2013-1-27,18.4,10.9,5.4,5.0,0.1,-2.0,76,63,43,30.54,30.34,9,1,10,0.00
2013-1-28,24.2,16.4,5.8,21.0,10.6,0.0,90,78,50,30.49,30.00,4,1,9,0.14
2013-1-29,38.8,28.1,21.7,36.0,24.9,19.0,91,87,82,30.18,29.93,10,1,16,0.00
2013-1-30,56.4,47.8,38.5,54.0,45.3,36.0,93,91,87,29.92,29.21,21,6,27,0.02
2013-1-31,55.1,38.5,22.5,54.0,30.1,9.0,95,73,50,29.52,28.79,18,7,31,0.11
2013-2-1,22.3,15.2,11.9,11.0,6.4,2.0,82,69,55,30.14,29.53,9,2,15,0.00
2013-2-2,21.8,15.7,8.3,13.0,7.4,0.0,83,70,59,30.19,30.03,10,1,16,0.00
2013-2-3,26.2,16.0,8.0,18.0,11.0,4.0,92,81,62,30.05,29.77,3,0,6,0.00
2013-2-4,23.5,16.1,8.6,15.0,6.1,-6.0,87,67,42,29.96,29.75,13,2,21,0.00
2013-2-5,23.8,12.7,1.7,8.0,-0.8,-7.0,76,56,32,30.06,29.90,3,0,9,0.00
2013-2-6,26.5,19.9,9.9,23.0,8.1,-5.0,88,61,40,30.41,29.87,6,1,11,0.00
2013-2-7,12.3,7.7,1.2,-1.0,-3.8,-8.0,69,60,51,30.63,30.41,4,1,9,0.00
2013-2-8,23.8,16.0,8.3,21.0,11.3,-1.0,92,81,65,30.45,29.99,6,0,12,0.40
2013-2-9,18.7,11.6,8.5,15.0,3.4,-1.0,88,70,53,30.39,29.99,14,4,22,0.02
2013-2-10,26.7,13.4,-5.5,9.0,1.1,-10.0,88,60,39,30.51,30.25,4,1,13,0.00
2013-2-11,38.9,33.0,23.5,36.0,22.3,3.0,94,69,34,30.24,29.59,14,4,19,0.04
2013-2-12,36.9,35.2,32.2,30.0,28.6,25.0,81,77,71,29.83,29.58,10,3,16,0.00
2013-2-13,38.0,34.0,31.1,27.0,25.4,24.0,80,71,60,29.83,29.74,6,1,7,0.00
2013-2-14,36.2,33.0,30.4,29.0,23.9,20.0,86,70,56,29.93,29.76,5,1,9,0.00
2013-2-15,43.1,36.3,31.0,32.0,26.7,19.0,87,69,53,29.96,29.82,11,3,20,0.00
2013-2-16,30.8,23.8,16.5,19.0,12.3,6.0,80,62,50,30.03,29.95,8,3,13,0.00
2013-2-17,16.4,12.6,10.1,7.0,4.3,2.0,83,70,58,29.94,29.73,7,2,14,0.00
2013-2-18,28.9,15.8,6.7,4.0,-0.1,-4.0,77,52,29,30.17,29.91,6,1,11,0.00
2013-2-19,42.1,29.8,12.7,32.0,14.9,1.0,94,57,34,30.15,29.61,7,2,16,0.11
2013-2-20,31.4,26.6,19.2,30.0,20.4,11.0,94,78,64,29.80,29.61,9,3,19,0.00
2013-2-21,20.7,16.4,10.1,17.0,9.7,3.0,87,75,66,30.41,29.81,9,1,14,0.01
2013-2-22,35.2,26.3,13.6,26.0,20.4,11.0,91,78,66,30.45,30.23,2,0,4,0.00
2013-2-23,36.2,33.4,31.6,32.0,27.9,22.0,93,81,66,30.22,29.88,12,2,14,0.05
2013-2-24,36.6,33.6,32.0,34.0,31.1,30.0,93,90,86,29.96,29.80,5,0,9,0.03
2013-2-25,37.6,34.3,32.2,34.0,31.5,30.0,92,89,83,30.24,29.97,2,0,5,0.00
2013-2-26,43.4,37.0,32.0,36.0,31.2,27.0,93,80,66,30.32,30.09,14,1,14,0.00
2013-2-27,40.6,36.0,33.0,35.0,30.8,26.0,99,82,66,30.09,29.63,14,2,15,0.16
2013-2-28,45.3,36.9,32.7,37.0,32.9,31.0,94,86,63,29.63,29.56,4,0,7,0.00
2013-3-1,34.8,32.2,30.5,31.0,29.1,28.0,93,88,76,29.78,29.62,7,1,13,0.00
2013-3-2,31.7,28.0,23.1,29.0,24.6,21.0,93,87,76,29.81,29.76,10,1,14,0.04
2013-3-3,30.5,25.9,23.0,25.0,21.8,20.0,91,84,76,29.78,29.70,6,0,8,0.01
2013-3-4,28.4,24.6,23.1,22.0,19.7,17.0,90,82,70,29.91,29.72,8,2,13,0.01
2013-3-5,37.5,29.1,24.9,28.0,24.3,22.0,88,82,68,30.13,29.92,9,1,9,0.00
2013-3-6,44.6,34.0,23.3,32.0,25.0,21.0,92,72,50,30.19,30.11,8,2,17,0.00
2013-3-7,35.9,33.0,29.9,25.0,23.1,21.0,81,68,60,30.22,30.18,11,2,14,0.00
2013-3-8,38.3,31.7,28.4,27.0,24.9,23.0,83,76,63,30.35,30.18,10,2,16,0.00
2013-3-9,47.1,34.7,24.5,28.0,24.3,20.0,85,67,42,30.38,30.32,5,1,9,0.00
2013-3-10,54.6,42.6,27.2,27.0,24.3,22.0,85,53,30,30.33,30.08,12,3,21,0.00
2013-3-11,49.9,46.9,41.8,33.0,29.8,27.0,65,52,44,30.14,29.89,12,5,20,0.00
2013-3-12,52.3,46.4,36.9,49.0,41.9,31.0,95,85,53,29.92,29.71,16,3,22,0.91
2013-3-13,43.3,37.0,29.9,35.0,32.4,28.0,93,84,58,29.82,29.73,7,0,10,0.00
2013-3-14,32.6,24.9,17.1,28.0,15.0,6.0,89,66,54,29.94,29.72,12,2,18,0.00
2013-3-15,32.6,25.1,14.4,27.0,15.6,6.0,89,68,43,29.94,29.57,9,2,15,0.00
2013-3-16,28.2,22.6,17.7,20.0,14.2,10.0,83,71,57,29.95,29.75,8,1,10,0.00
2013-3-17,28.3,20.2,14.1,15.0,8.0,2.0,84,61,36,30.37,29.94,8,1,11,0.00
2013-3-18,34.4,23.5,9.1,16.0,8.4,3.0,83,55,29,30.45,30.11,6,0,9,0.00
2013-3-19,33.0,29.8,27.2,31.0,27.3,15.0,94,90,55,30.10,29.73,13,1,14,0.38
2013-3-20,33.5,28.7,23.3,29.0,23.6,20.0,93,82,69,29.71,29.65,7,1,12,0.02
2013-3-21,38.6,29.0,20.7,25.0,18.3,15.0,86,66,42,29.73,29.64,7,1,11,0.00
2013-3-22,37.0,28.8,21.4,26.0,20.7,16.0,86,72,56,29.76,29.65,5,1,10,0.00
2013-3-23,38.6,32.6,27.7,25.0,23.2,21.0,83,69,51,29.82,29.68,12,2,18,0.00
2013-3-24,38.9,34.3,28.1,27.0,24.6,22.0,79,68,57,29.89,29.80,13,1,14,0.00
2013-3-25,46.5,34.8,22.0,31.0,25.8,19.0,89,71,55,29.83,29.58,5,0,8,0.00
2013-3-26,47.2,38.0,30.9,30.0,26.6,23.0,83,65,43,29.80,29.63,5,1,12,0.00
2013-3-27,50.0,41.1,32.8,33.0,28.7,24.0,81,62,49,29.94,29.78,13,1,15,0.00
2013-3-28,50.6,41.6,34.9,38.0,34.7,33.0,92,78,56,30.05,29.93,6,0,11,0.00
2013-3-29,49.2,43.5,39.1,37.0,34.4,30.0,85,71,57,30.07,30.01,4,0,7,0.00
2013-3-30,52.3,41.1,31.1,34.0,22.5,14.0,88,52,24,30.12,30.04,7,1,12,0.00
2013-3-31,54.4,43.1,29.2,39.0,24.4,17.0,88,50,32,30.08,29.70,12,3,19,0.00
2013-4-1,46.0,38.9,28.2,41.0,30.3,15.0,90,73,37,29.79,29.49,11,4,25,0.01
2013-4-2,34.1,28.4,22.7,22.0,16.3,12.0,81,61,47,29.91,29.79,15,4,20,0.00
2013-4-3,42.5,33.0,25.6,18.0,13.6,10.0,59,46,30,30.20,29.90,11,4,17,0.00
2013-4-4,53.2,40.5,26.8,23.0,17.7,12.0,65,41,26,30.27,29.87,8,2,16,0.00
2013-4-5,47.0,39.5,30.4,33.0,23.7,14.0,74,54,40,30.00,29.80,7,2,10,0.00
2013-4-6,40.8,31.8,23.2,16.0,10.4,7.0,59,42,28,30.30,30.00,9,2,14,0.00
2013-4-7,57.2,47.8,32.8,36.0,24.0,11.0,58,40,32,30.25,29.76,21,6,30,0.00
2013-4-8,52.8,44.6,40.4,38.0,32.8,31.0,72,64,47,30.15,29.89,6,1,11,0.00
2013-4-9,49.0,44.7,40.1,44.0,40.2,34.0,94,84,71,30.03,29.75,9,1,15,0.28
2013-4-10,51.2,45.5,41.5,46.0,41.2,39.0,94,85,68,30.01,29.91,4,0,7,0.11
2013-4-11,41.1,34.8,31.4,39.0,22.1,18.0,91,61,49,30.22,29.94,11,2,14,0.00
2013-4-12,34.8,33.4,31.7,33.0,27.2,17.0,94,79,50,30.20,29.79,8,2,17,0.57
2013-4-13,53.1,40.9,33.6,40.0,36.4,32.0,94,84,60,29.90,29.77,5,2,11,0.02
2013-4-14,46.5,40.7,34.2,39.0,34.8,28.0,90,80,64,30.22,29.88,3,0,8,0.00
2013-4-15,60.4,46.2,28.7,37.0,32.3,26.0,93,62,39,30.35,30.16,12,2,13,0.00
2013-4-16,56.8,53.2,49.0,53.0,41.9,32.0,94,67,49,30.19,29.90,16,5,29,0.06
2013-4-17,55.0,47.9,39.6,42.0,33.7,29.0,76,59,43,30.34,30.09,8,1,15,0.00
2013-4-18,64.1,49.8,36.3,44.0,35.4,29.0,81,60,40,30.34,29.87,17,4,27,0.00
2013-4-19,72.3,62.3,44.6,59.0,53.2,42.0,91,73,58,29.87,29.41,17,6,27,0.53
2013-4-20,52.5,43.3,34.7,41.0,30.8,21.0,90,63,45,30.27,29.65,12,4,22,0.00
2013-4-21,45.1,36.8,28.7,26.0,19.9,16.0,79,52,34,30.69,30.29,7,1,12,0.00
2013-4-22,58.2,43.5,25.5,29.0,22.6,16.0,84,48,21,30.71,30.49,8,2,17,0.00
2013-4-23,58.3,45.6,34.8,38.0,29.3,19.0,76,54,39,30.52,30.12,11,3,17,0.00
2013-4-24,72.6,56.8,41.7,52.0,41.6,37.0,86,61,31,30.12,29.58,11,3,20,0.02
2013-4-25,58.5,47.9,40.7,52.0,33.3,26.0,91,59,36,30.29,29.60,11,3,21,0.06
2013-4-26,55.1,45.6,36.2,43.0,34.5,27.0,79,66,55,30.43,30.27,11,1,11,0.00
2013-4-27,63.7,49.1,32.8,42.0,33.6,28.0,91,60,31,30.45,30.28,6,0,7,0.00
2013-4-28,73.3,57.0,35.0,43.0,34.8,30.0,83,48,24,30.30,30.07,6,1,10,0.00
2013-4-29,64.3,58.9,54.4,46.0,40.5,35.0,65,51,39,30.16,30.09,13,2,18,0.00
2013-4-30,71.5,61.2,52.4,52.0,45.3,41.0,72,57,43,30.25,30.16,9,2,16,0.00
2013-5-1,79.3,66.2,53.9,50.0,43.0,36.0,68,45,32,30.41,30.23,6,1,10,0.00
2013-5-2,81.8,69.2,55.4,52.0,44.0,36.0,58,41,28,30.40,30.26,13,1,17,0.00
2013-5-3,73.1,61.5,49.3,48.0,39.0,29.0,64,44,33,30.46,30.29,8,2,15,0.00
2013-5-4,77.3,64.4,49.4,51.0,44.4,40.0,76,50,33,30.33,30.15,6,1,10,0.00
2013-5-5,81.6,65.9,53.0,50.0,40.3,36.0,69,41,26,30.21,30.06,9,1,12,0.00
2013-5-6,80.7,67.2,52.8,53.0,36.4,17.0,61,35,14,30.17,29.99,8,1,12,0.00
2013-5-7,83.5,69.1,56.4,57.0,46.4,28.0,74,47,26,30.10,29.98,7,1,12,0.00
2013-5-8,80.9,68.2,58.8,61.0,54.9,43.0,90,64,45,30.11,29.98,9,1,15,0.03
2013-5-9,72.7,65.0,58.9,62.0,56.7,50.0,95,76,47,29.97,29.80,9,1,14,0.15
2013-5-10,72.7,62.0,57.1,61.0,56.6,53.0,92,83,61,29.96,29.75,4,0,7,0.00
2013-5-11,68.5,61.3,49.9,63.0,56.2,46.0,94,84,68,29.75,29.57,11,2,19,0.13
2013-5-12,59.3,51.1,42.8,51.0,40.2,29.0,92,68,40,29.74,29.61,0,0,2,0.00
2013-5-13,52.8,45.3,40.8,39.0,32.8,27.0,87,63,46,30.04,29.73,11,2,18,0.00
2013-5-14,59.0,47.3,34.5,40.0,32.9,26.0,92,61,34,30.11,29.98,5,0,10,0.00
2013-5-15,64.5,49.1,35.4,50.0,38.6,30.0,87,70,35,30.02,29.56,17,2,25,0.06
2013-5-16,75.3,58.8,49.1,50.0,44.9,37.0,88,63,27,29.90,29.58,12,1,18,0.00
2013-5-17,65.0,55.3,47.6,46.0,42.5,40.0,83,64,43,30.20,29.90,4,0,14,0.00
2013-5-18,74.4,58.5,42.1,50.0,40.8,34.0,90,57,27,30.29,30.19,5,0,7,0.00
2013-5-19,68.4,58.8,50.4,56.0,49.9,38.0,93,73,58,30.25,30.07,11,2,19,0.05
2013-5-20,70.0,61.3,56.5,63.0,57.6,54.0,94,88,73,30.06,29.93,12,1,21,0.09
2013-5-21,67.2,61.4,57.4,63.0,58.1,55.0,95,89,76,29.95,29.76,6,0,23,0.56
2013-5-22,79.8,65.7,57.1,71.0,63.0,55.0,95,91,73,29.82,29.67,8,1,13,1.50
2013-5-23,77.9,67.3,62.3,68.0,64.1,60.0,94,89,66,29.72,29.63,12,1,20,0.90
2013-5-24,62.6,48.2,44.7,61.0,46.6,43.0,95,94,93,30.04,29.70,10,1,12,1.09
2013-5-25,45.4,43.1,41.1,44.0,41.4,39.0,94,94,93,30.03,29.92,13,2,20,0.87
2013-5-26,48.8,44.4,41.4,46.0,42.3,40.0,94,92,85,30.08,29.87,13,1,22,0.41
2013-5-27,65.7,53.6,40.5,48.0,41.3,38.0,93,67,37,30.16,30.05,6,0,11,0.00
2013-5-28,73.0,59.6,41.3,52.0,43.9,38.0,92,60,36,30.21,30.06,6,1,14,0.00
2013-5-29,68.6,62.3,54.8,64.0,57.6,49.0,94,85,63,30.06,29.87,9,2,15,0.28
2013-5-30,85.4,73.2,63.1,70.0,64.7,61.0,94,77,50,30.04,29.93,4,0,8,0.00
2013-5-31,90.8,77.9,66.5,73.0,65.8,58.0,86,67,51,30.02,29.82,6,1,13,0.00
2013-6-1,88.1,78.0,67.3,72.0,66.7,58.0,92,69,48,29.89,29.72,12,1,17,0.43
2013-6-2,84.3,71.9,64.4,73.0,67.5,61.0,94,86,61,29.77,29.59,14,2,17,0.53
2013-6-3,69.4,63.1,54.5,61.0,52.8,44.0,90,70,48,29.85,29.71,7,1,13,0.00
2013-6-4,64.3,55.9,50.4,48.0,44.8,42.0,78,67,52,30.09,29.85,4,1,9,0.00
2013-6-5,69.1,58.6,46.4,52.0,46.1,42.0,92,65,41,30.20,30.09,7,0,9,0.00
2013-6-6,62.3,56.6,52.8,55.0,50.4,45.0,93,80,63,30.15,30.04,4,0,6,0.10
2013-6-7,57.0,54.7,51.7,54.0,52.1,49.0,94,91,83,30.05,29.86,5,1,14,0.64
2013-6-8,61.4,57.7,54.4,58.0,55.3,53.0,95,92,84,30.00,29.76,3,0,6,0.00
2013-6-9,76.7,65.3,57.1,62.0,56.7,52.0,94,76,49,30.16,30.00,8,1,10,0.00
2013-6-10,75.8,63.7,52.4,63.0,54.5,50.0,92,75,42,30.17,29.93,5,1,10,0.23
2013-6-11,61.4,58.3,56.7,60.0,56.5,55.0,95,94,88,29.92,29.56,3,0,8,1.63
2013-6-12,67.0,59.1,54.1,60.0,55.2,53.0,96,87,69,29.83,29.60,5,0,12,0.13
2013-6-13,69.6,60.7,50.3,61.0,55.2,49.0,96,83,50,29.80,29.65,7,0,8,0.00
2013-6-14,74.5,63.8,52.0,61.0,54.6,47.0,95,74,54,29.82,29.67,4,0,12,0.00
2013-6-15,75.2,63.3,48.6,52.0,48.5,45.0,90,62,37,29.95,29.83,4,0,10,0.00
2013-6-16,65.2,61.1,57.2,60.0,53.7,47.0,94,78,56,29.87,29.65,7,1,11,0.30
2013-6-17,74.7,63.8,56.0,64.0,57.7,52.0,95,81,64,29.92,29.73,7,1,12,0.01
2013-6-18,69.5,59.1,49.0,54.0,49.8,45.0,94,73,42,29.98,29.90,4,0,7,0.00
2013-6-19,66.9,58.3,47.1,53.0,45.4,41.0,84,63,44,30.16,29.96,6,1,10,0.00
2013-6-20,75.6,60.9,44.3,56.0,48.4,42.0,94,67,37,30.25,30.15,4,0,10,0.00
2013-6-21,82.4,66.9,50.5,61.0,54.2,48.0,93,67,40,30.23,30.15,5,0,7,0.00
2013-6-22,77.6,67.1,59.9,69.0,62.0,56.0,94,84,70,30.16,30.04,6,0,7,0.24
2013-6-23,82.8,72.9,65.8,75.0,69.6,64.0,95,90,73,30.05,29.90,5,1,11,0.77
2013-6-24,88.4,74.5,67.1,75.0,69.4,65.0,94,84,62,29.93,29.82,4,1,10,0.35
2013-6-25,86.0,71.3,66.5,76.0,67.9,65.0,95,89,64,29.87,29.70,6,1,12,1.45
2013-6-26,75.3,69.7,65.4,70.0,67.3,64.0,96,92,80,29.76,29.70,6,1,11,0.89
2013-6-27,83.9,74.1,67.5,75.0,69.1,65.0,94,85,63,29.76,29.67,3,0,7,0.05
2013-6-28,76.0,65.6,58.9,69.0,61.8,58.0,96,88,75,29.66,29.34,11,1,20,0.53
2013-6-29,78.2,66.3,58.4,70.0,63.2,56.0,96,89,73,29.63,29.47,4,0,5,0.38
2013-6-30,81.8,69.8,60.5,69.0,64.4,59.0,97,84,57,29.90,29.63,4,0,8,0.03
2013-7-1,75.5,67.9,61.7,69.0,64.3,60.0,95,88,73,30.06,29.90,7,0,10,0.51
2013-7-2,74.5,65.4,59.5,70.0,63.4,58.0,96,93,83,30.09,30.03,1,0,4,0.42
2013-7-3,81.6,73.2,67.6,76.0,70.8,66.0,97,92,82,30.11,30.06,2,0,6,0.02
2013-7-4,86.8,75.7,69.8,78.0,72.5,68.0,96,90,69,30.13,30.02,7,1,8,1.03
2013-7-5,88.4,77.4,69.0,77.0,72.3,68.0,95,84,63,30.09,29.98,6,0,10,0.00
2013-7-6,85.5,75.8,70.6,73.0,70.4,64.0,95,84,57,30.03,29.93,8,1,8,0.00
2013-7-7,80.2,72.9,68.6,73.0,67.0,61.0,93,82,71,29.98,29.89,6,0,9,0.02
2013-7-8,79.5,71.1,67.6,72.0,68.1,65.0,95,90,74,30.01,29.89,4,0,6,0.05
2013-7-9,87.8,75.1,64.8,76.0,68.9,63.0,95,82,60,30.04,29.91,2,0,7,0.00
2013-7-10,81.5,76.7,72.0,74.0,71.0,67.0,89,82,74,29.91,29.65,12,3,17,0.00
2013-7-11,77.8,72.1,62.4,72.0,65.2,59.0,96,80,57,29.98,29.67,4,0,14,0.46
2013-7-12,77.8,67.7,56.9,65.0,59.8,55.0,95,77,56,30.17,29.99,3,0,7,0.00
2013-7-13,82.3,72.0,58.0,69.0,64.3,56.0,95,78,62,30.26,30.17,5,1,11,0.00
2013-7-14,86.9,77.1,71.6,76.0,70.7,67.0,91,81,64,30.27,30.16,3,0,6,0.00
2013-7-15,90.9,79.0,69.2,77.0,69.9,66.0,95,76,48,30.18,30.10,5,0,7,0.00
2013-7-16,87.1,78.1,67.5,73.0,69.0,65.0,93,75,56,30.19,30.11,4,0,11,0.00
2013-7-17,92.2,79.8,69.3,78.0,71.4,66.0,91,77,55,30.14,29.90,4,1,9,0.03
2013-7-18,89.8,79.1,71.3,77.0,72.2,68.0,91,80,58,29.99,29.86,4,0,6,0.01
2013-7-19,95.1,80.4,69.5,77.0,71.8,67.0,93,77,48,29.86,29.58,8,2,21,0.12
2013-7-20,79.4,73.4,66.1,75.0,66.9,60.0,94,81,54,29.80,29.59,4,1,10,0.58
2013-7-21,73.8,64.8,56.4,63.0,55.1,52.0,92,72,52,30.00,29.80,5,1,9,0.00
2013-7-22,80.8,67.6,52.4,67.0,59.7,50.0,93,77,58,30.01,29.80,6,0,6,0.18
2013-7-23,75.7,70.4,67.8,70.0,67.5,66.0,95,91,74,29.79,29.50,5,0,8,0.42
2013-7-24,70.1,62.9,53.7,67.0,57.1,49.0,95,81,65,30.03,29.51,3,0,10,0.43
2013-7-25,70.2,59.5,48.0,56.0,50.8,46.0,93,74,56,30.14,30.03,5,0,11,0.00
2013-7-26,74.6,62.3,51.5,64.0,56.8,50.0,95,83,66,30.10,29.99,5,0,8,0.00
2013-7-27,83.4,68.7,53.4,67.0,59.0,52.0,96,74,42,30.03,29.90,4,0,9,0.00
2013-7-28,78.1,71.7,66.6,70.0,64.4,58.0,89,78,67,29.93,29.85,9,1,12,0.00
2013-7-29,76.5,67.8,63.2,68.0,63.2,59.0,96,86,65,30.05,29.90,4,0,8,0.09
2013-7-30,76.4,66.7,58.0,63.0,59.6,56.0,95,79,58,30.10,30.02,4,0,9,0.03
2013-7-31,81.1,69.2,56.6,65.0,59.3,54.0,95,73,41,30.11,29.96,4,0,9,0.00
2013-8-1,79.3,68.6,64.8,66.0,62.3,58.0,94,81,63,29.96,29.76,13,2,20,0.55
2013-8-2,80.2,68.9,61.0,67.0,61.7,56.0,95,80,49,29.79,29.73,7,1,11,0.27
2013-8-3,75.5,66.1,60.6,63.0,59.8,58.0,95,81,58,29.80,29.70,7,1,10,0.55
2013-8-4,73.0,63.1,57.5,64.0,57.9,54.0,95,84,63,29.92,29.78,4,0,9,0.16
2013-8-5,70.8,61.7,52.0,55.0,49.9,41.0,90,67,37,30.01,29.92,8,1,8,0.00
2013-8-6,77.6,64.4,50.7,59.0,52.9,48.0,93,69,41,30.09,30.01,6,1,11,0.00
2013-8-7,79.8,69.5,56.5,64.0,59.4,53.0,88,71,53,30.09,29.93,9,2,20,0.05
2013-8-8,82.5,73.6,69.3,73.0,66.9,61.0,88,80,67,29.95,29.88,10,2,15,0.01
2013-8-9,75.4,72.0,68.5,73.0,69.8,67.0,95,92,87,29.89,29.72,4,0,5,0.21
2013-8-10,74.0,67.2,57.3,69.0,56.4,51.0,95,70,51,30.00,29.75,4,0,10,0.00
2013-8-11,79.1,66.0,54.7,61.0,56.3,53.0,93,73,46,30.05,29.94,4,0,8,0.00
2013-8-12,78.5,67.5,58.7,64.0,58.2,53.0,88,73,49,29.98,29.85,5,0,10,0.00
2013-8-13,74.0,65.4,59.5,67.0,61.8,57.0,94,88,71,29.85,29.64,7,1,12,0.15
2013-8-14,65.2,60.5,54.0,63.0,55.2,51.0,95,83,67,29.92,29.66,7,0,7,0.32
2013-8-15,75.8,61.6,51.5,58.0,52.9,49.0,93,75,49,30.05,29.93,10,1,12,0.00
2013-8-16,77.5,64.6,53.0,61.0,56.1,49.0,94,75,55,30.18,30.04,4,0,10,0.14
2013-8-17,75.2,63.6,54.1,63.0,56.1,53.0,96,79,49,30.29,30.18,7,0,8,0.00
2013-8-18,78.3,65.4,52.4,63.0,57.8,51.0,95,78,50,30.25,30.04,6,0,7,0.00
2013-8-19,84.1,70.5,59.7,67.0,61.5,57.0,91,75,51,30.05,29.92,4,0,8,0.00
2013-8-20,85.4,71.9,60.5,70.0,62.8,58.0,92,74,49,30.05,29.96,6,0,9,0.00
2013-8-21,86.9,74.1,62.6,72.0,64.9,60.0,91,74,51,30.10,29.93,6,1,10,0.00
2013-8-22,85.3,72.0,65.9,71.0,65.3,61.0,95,81,57,29.96,29.78,6,1,12,0.34
2013-8-23,70.5,63.5,54.2,64.0,56.0,51.0,95,78,55,30.17,29.85,6,1,11,0.00
2013-8-24,77.1,63.1,48.3,62.0,52.4,47.0,96,71,40,30.32,30.17,3,0,6,0.00
2013-8-25,78.8,64.9,49.9,62.0,55.4,48.0,95,74,44,30.35,30.08,6,0,9,0.00
2013-8-26,71.9,67.1,62.7,68.0,63.8,58.0,94,89,75,30.10,29.84,6,0,9,0.20
2013-8-27,82.7,72.6,68.3,72.0,68.8,67.0,95,88,67,29.89,29.82,1,0,5,0.00
2013-8-28,84.7,73.8,65.2,75.0,68.4,64.0,96,84,60,29.91,29.82,4,0,8,0.00
2013-8-29,81.6,70.5,65.3,69.0,65.9,63.0,96,86,63,30.02,29.91,4,0,6,0.00
2013-8-30,83.8,73.0,62.9,73.0,67.5,61.0,96,83,63,29.97,29.72,6,0,10,0.00
2013-8-31,76.0,71.4,68.0,70.0,68.3,64.0,94,90,78,29.77,29.71,4,0,12,0.14
2013-9-1,83.2,73.3,66.4,71.0,67.3,65.0,96,82,58,29.84,29.76,5,0,7,0.00
2013-9-2,79.5,71.3,63.7,73.0,67.4,62.0,95,88,74,29.78,29.61,10,1,17,1.02
2013-9-3,76.1,67.4,63.0,65.0,62.1,58.0,96,83,64,29.77,29.66,4,0,8,0.00
2013-9-4,73.9,64.7,58.0,62.0,58.6,55.0,94,81,63,29.89,29.78,6,1,9,0.05
2013-9-5,64.6,56.9,47.6,59.0,46.6,38.0,94,71,41,30.15,29.86,4,0,9,0.00
2013-9-6,68.1,55.7,40.8,49.0,44.4,39.0,95,69,41,30.24,30.02,5,1,10,0.00
2013-9-7,67.3,60.8,55.1,57.0,51.6,47.0,84,72,59,30.03,29.81,8,2,13,0.01
2013-9-8,62.3,55.7,46.0,54.0,47.1,40.0,93,74,51,30.09,29.75,6,1,16,0.30
2013-9-9,67.5,55.5,42.3,51.0,46.0,40.0,93,72,51,30.18,30.02,9,2,14,0.00
2013-9-10,73.3,65.5,59.1,70.0,61.4,51.0,95,87,70,30.03,29.92,9,3,12,0.37
2013-9-11,89.9,78.6,70.1,77.0,71.9,67.0,93,81,63,29.96,29.83,9,2,13,0.78
2013-9-12,74.3,69.8,66.1,72.0,67.8,65.0,95,93,89,29.89,29.59,6,1,9,0.19
2013-9-13,65.9,57.9,52.3,65.0,56.2,51.0,95,94,89,29.86,29.59,4,0,9,0.26
2013-9-14,59.6,52.8,46.0,53.0,49.9,44.0,96,89,74,30.06,29.84,3,0,7,0.05
2013-9-15,66.0,55.8,45.0,55.0,50.3,43.0,95,82,60,30.12,29.99,6,1,11,0.00
2013-9-16,56.8,49.3,38.4,54.0,44.6,36.0,95,85,57,30.33,29.99,7,1,12,0.42
2013-9-17,63.4,48.6,35.7,51.0,41.5,34.0,100,79,47,30.48,30.30,3,0,8,0.00
2013-9-18,69.4,55.9,42.5,54.0,46.8,40.0,93,73,46,30.31,30.09,5,1,9,0.00
2013-9-19,74.7,59.9,45.8,57.0,51.6,44.0,94,76,44,30.13,30.00,4,0,9,0.00
2013-9-20,78.4,65.0,50.5,63.0,54.8,48.0,94,72,42,30.06,29.84,10,1,12,0.00
2013-9-21,73.8,67.2,61.0,62.0,57.4,52.0,93,72,47,29.86,29.54,12,4,25,0.31
2013-9-22,63.4,55.9,47.3,62.0,51.5,42.0,95,85,67,29.89,29.52,8,1,9,0.26
2013-9-23,51.0,47.6,43.6,43.0,41.0,38.0,85,78,71,30.05,29.89,7,1,8,0.00
2013-9-24,61.1,52.0,46.7,47.0,43.1,40.0,89,72,55,30.03,29.90,5,0,9,0.00
2013-9-25,64.1,54.2,42.1,53.0,47.8,41.0,96,80,58,30.01,29.92,7,1,11,0.00
2013-9-26,60.9,51.9,39.6,54.0,47.2,38.0,96,85,69,30.17,30.01,5,0,8,0.00
2013-9-27,67.0,56.5,49.3,55.0,51.0,47.0,93,82,62,30.28,30.16,2,0,7,0.00
2013-9-28,73.0,57.5,44.3,60.0,51.3,43.0,96,81,53,30.35,30.21,3,0,5,0.00
2013-9-29,73.2,59.9,46.6,59.0,52.3,45.0,96,78,55,30.21,30.01,3,0,8,0.00
2013-9-30,73.4,59.1,47.5,59.0,51.9,46.0,95,79,48,30.06,29.94,8,0,9,0.00
2013-10-1,76.4,59.4,46.9,63.0,53.9,45.0,96,83,58,29.98,29.84,3,0,7,0.00
2013-10-2,78.6,63.2,51.9,65.0,54.9,50.0,94,76,42,29.94,29.79,4,1,11,0.00
2013-10-3,70.8,59.2,49.5,53.0,49.3,45.0,92,72,47,30.09,29.94,4,0,5,0.00
2013-10-4,62.2,54.7,46.5,57.0,50.9,45.0,96,87,79,30.10,30.03,2,0,4,0.00
2013-10-5,65.6,56.3,49.2,52.0,48.4,44.0,91,76,47,30.13,30.06,2,0,7,0.00
2013-10-6,58.2,52.5,46.4,53.0,48.3,43.0,93,86,74,30.13,29.96,10,1,16,0.36
2013-10-7,76.4,61.5,53.5,63.0,56.4,48.0,94,83,62,29.95,29.53,8,2,21,0.86
2013-10-8,59.6,51.9,40.1,49.0,41.5,37.0,90,69,46,30.36,29.86,7,1,12,0.00
2013-10-9,64.9,49.8,36.0,48.0,39.8,35.0,96,72,38,30.45,30.31,5,0,10,0.00
2013-10-10,65.1,51.6,39.8,51.0,44.5,37.0,92,78,56,30.32,30.16,2,0,5,0.00
2013-10-11,69.8,52.7,40.6,55.0,46.9,39.0,96,82,42,30.18,30.12,4,0,5,0.00
2013-10-12,74.3,57.3,43.3,58.0,49.6,42.0,96,78,53,30.31,30.16,5,1,9,0.00
2013-10-13,69.2,58.7,50.8,51.0,48.7,47.0,92,71,50,30.37,30.24,10,2,14,0.00
2013-10-14,58.8,54.5,50.3,54.0,51.0,48.0,95,88,71,30.28,30.22,7,2,13,0.09
2013-10-15,63.4,54.8,45.6,58.0,51.9,44.0,97,90,78,30.27,30.06,3,0,10,0.01
2013-10-16,64.1,59.9,55.2,54.0,52.8,52.0,90,78,66,30.05,29.76,12,3,22,0.03
2013-10-17,66.1,58.4,53.3,57.0,52.8,49.0,95,82,59,29.81,29.65,8,1,13,0.22
2013-10-18,62.4,55.1,50.2,58.0,47.9,39.0,96,78,56,29.86,29.59,8,2,15,0.26
2013-10-19,60.9,53.2,44.5,47.0,43.3,39.0,88,70,56,29.89,29.61,9,2,14,0.04
2013-10-20,55.2,50.4,44.4,47.0,40.0,35.0,91,69,48,29.97,29.59,9,3,17,0.09
2013-10-21,61.8,51.7,39.8,45.0,40.6,36.0,87,68,50,30.03,29.82,10,2,18,0.00
2013-10-22,58.1,50.4,42.1,46.0,39.3,31.0,89,67,51,29.82,29.67,13,3,21,0.06
2013-10-23,51.7,43.8,38.6,37.0,33.6,30.0,83,68,51,29.76,29.61,4,0,8,0.00
2013-10-24,45.6,40.2,33.3,35.0,30.9,26.0,77,70,60,29.88,29.66,6,1,13,0.00
2013-10-25,45.1,39.6,35.0,34.0,30.2,27.0,81,69,55,30.12,29.88,5,1,10,0.00
2013-10-26,43.5,39.9,34.3,36.0,32.7,27.0,86,76,68,30.10,29.77,8,3,20,0.02
2013-10-27,48.1,43.2,38.3,38.0,34.1,30.0,79,70,56,30.01,29.73,10,2,16,0.00
2013-10-28,45.3,39.6,31.2,39.0,30.2,21.0,88,70,47,30.40,29.98,9,1,15,0.03
2013-10-29,45.1,32.1,22.8,30.0,24.7,20.0,92,75,47,30.50,30.35,5,0,8,0.00
2013-10-30,45.0,36.7,28.1,36.0,30.2,23.0,86,77,68,30.34,30.18,4,0,9,0.00
2013-10-31,59.1,47.8,37.7,57.0,44.5,34.0,93,88,81,30.21,29.56,13,3,21,0.19
2013-11-1,65.9,60.3,54.3,60.0,52.5,43.0,93,77,46,29.60,29.20,15,6,26,0.27
2013-11-2,54.2,45.2,34.0,47.0,41.2,30.0,93,86,69,29.92,29.57,9,1,13,0.20
2013-11-3,36.8,31.7,26.0,30.0,21.3,17.0,84,67,48,30.51,29.92,10,2,15,0.00
2013-11-4,39.2,30.1,22.5,22.0,18.9,16.0,79,64,47,30.70,30.52,7,1,9,0.00
2013-11-5,48.3,40.4,28.4,35.0,26.4,18.0,70,58,45,30.65,30.39,12,2,21,0.00
2013-11-6,56.2,51.3,45.2,46.0,41.2,36.0,75,68,63,30.40,29.80,12,4,30,0.00
2013-11-7,55.2,46.2,34.8,51.0,39.8,26.0,93,79,65,29.87,29.66,11,3,22,0.13
2013-11-8,38.8,36.1,33.0,30.0,26.9,24.0,79,69,63,30.10,29.84,11,2,15,0.00
2013-11-9,41.7,36.9,30.6,33.0,26.3,23.0,86,66,51,30.20,29.91,7,1,13,0.02
2013-11-10,46.3,40.6,36.1,41.0,36.0,31.0,93,84,75,29.90,29.68,11,3,16,0.13
2013-11-11,42.0,37.9,30.9,35.0,29.5,26.0,89,72,62,30.11,29.82,11,3,18,0.00
2013-11-12,30.6,27.1,23.0,24.0,19.1,15.0,79,72,66,30.29,29.95,7,2,15,0.00
2013-11-13,32.8,26.7,19.9,22.0,16.4,13.0,77,66,48,30.36,30.01,8,2,13,0.00
2013-11-14,45.6,37.2,30.2,32.0,26.2,21.0,72,65,57,30.04,29.99,7,2,13,0.04
2013-11-15,52.4,43.9,37.2,26.0,22.0,19.0,61,43,33,30.15,30.04,7,2,15,0.00
2013-11-16,55.5,47.2,37.5,33.0,27.7,22.0,59,47,37,30.26,30.14,4,0,9,0.00
2013-11-17,57.0,51.5,46.5,50.0,42.2,30.0,89,71,51,30.21,29.61,8,1,19,0.08
2013-11-18,58.7,50.9,40.4,54.0,41.5,29.0,93,71,53,29.64,29.34,0,0,0,0.57
2013-11-19,40.2,31.8,28.4,30.0,21.0,19.0,85,65,59,30.39,29.64,9,3,17,0.00
2013-11-20,36.4,28.8,24.2,23.0,19.8,18.0,81,69,55,30.65,30.39,5,1,9,0.00
2013-11-21,42.0,33.2,21.3,27.0,18.4,12.0,84,58,30,30.64,30.34,7,1,15,0.00
2013-11-22,42.2,39.8,37.0,41.0,35.2,27.0,94,84,63,30.33,29.80,4,0,13,0.07
2013-11-23,39.8,30.5,20.0,36.0,23.3,13.0,90,75,60,29.99,29.76,9,2,19,0.07
2013-11-24,21.8,17.5,12.9,15.0,7.4,1.0,81,65,50,30.29,29.88,11,4,20,0.00
2013-11-25,29.8,20.2,9.1,17.0,7.9,1.0,76,60,43,30.41,30.14,12,3,18,0.00
2013-11-26,33.9,32.0,30.0,31.0,24.5,16.0,92,75,54,30.23,29.96,8,2,19,0.07
2013-11-27,35.7,33.8,27.6,34.0,32.0,25.0,94,93,89,29.95,29.39,6,1,10,0.84
2013-11-28,26.7,21.0,16.4,24.0,13.5,9.0,89,73,57,30.44,29.55,7,2,19,0.00
2013-11-29,24.0,18.1,12.5,15.0,10.7,8.0,84,73,52,30.79,30.44,5,0,6,0.00
2013-11-30,28.8,19.1,6.6,17.0,10.5,3.0,88,70,52,30.81,30.30,14,3,18,0.00
2013-12-1,37.9,33.1,28.8,32.0,26.9,16.0,90,78,60,30.31,30.04,7,1,17,0.00
2013-12-2,39.7,35.1,29.6,35.0,31.8,27.0,92,87,82,30.04,29.88,3,0,6,0.00
2013-12-3,42.8,35.2,30.0,37.0,31.8,27.0,92,87,78,30.02,29.91,6,1,10,0.00
2013-12-4,39.4,34.1,28.3,31.0,28.2,24.0,88,79,70,30.15,30.02,3,0,5,0.00
2013-12-5,53.6,45.6,32.0,50.0,40.6,27.0,92,82,77,30.11,29.79,9,2,22,0.00
2013-12-6,50.2,38.7,33.9,44.0,32.3,26.0,92,78,63,30.15,29.88,7,1,11,0.10
2013-12-7,33.1,28.6,24.9,26.0,16.2,13.0,75,60,49,30.49,30.13,6,1,14,0.00
2013-12-8,28.7,25.2,22.5,15.0,12.5,9.0,67,59,53,30.59,30.46,4,1,9,0.00
2013-12-9,36.0,29.6,25.2,33.0,23.8,12.0,92,80,55,30.46,29.81,9,3,16,0.00
2013-12-10,36.3,29.0,21.3,29.0,18.0,9.0,81,64,55,29.95,29.80,11,3,23,0.00
2013-12-11,28.9,22.1,15.6,17.0,11.3,7.0,84,64,48,30.19,29.95,13,4,22,0.00
2013-12-12,19.4,14.3,7.2,11.0,3.9,-1.0,78,64,51,30.33,29.94,8,2,18,0.00
2013-12-13,19.5,13.0,3.0,14.0,3.2,-7.0,80,65,54,30.47,29.90,9,2,15,0.00
2013-12-14,12.4,5.3,-1.5,9.0,-3.7,-8.0,86,67,52,30.66,30.15,7,1,9,0.09
2013-12-15,24.2,16.7,10.5,20.0,13.5,7.0,89,87,84,30.13,29.56,6,1,9,0.19
2013-12-16,13.7,7.6,-1.2,8.0,0.6,-8.0,87,73,58,30.27,29.70,5,1,11,0.00
2013-12-17,17.3,6.1,-8.6,12.0,0.2,-13.0,82,77,64,30.28,30.02,7,1,10,0.00
2013-12-18,26.5,20.4,14.0,22.0,16.0,10.0,87,83,78,30.02,29.93,4,1,7,0.00
2013-12-19,35.7,30.7,25.9,29.0,24.8,22.0,89,79,70,30.08,29.90,6,2,14,0.00
2013-12-20,35.3,28.0,21.1,31.0,24.2,18.0,91,86,75,30.07,29.90,4,0,7,0.12
2013-12-21,28.5,24.7,21.1,27.0,22.7,19.0,93,91,90,30.01,29.80,6,1,9,0.28
2013-12-22,31.3,25.5,20.3,30.0,23.7,18.0,94,92,90,30.00,29.74,4,0,6,1.01
2013-12-23,28.5,26.0,21.9,27.0,23.9,20.0,92,91,90,30.20,29.97,0,0,0,0.00
2013-12-24,21.6,12.9,5.4,19.0,9.3,0.0,90,85,79,30.39,30.18,5,1,10,0.00
2013-12-25,14.6,7.5,-0.4,10.0,2.9,-5.0,86,81,76,30.59,30.38,4,0,8,0.00
2013-12-26,26.4,22.3,14.9,24.0,19.4,11.0,91,88,80,30.37,30.10,6,1,8,0.07
2013-12-27,31.3,26.5,22.9,28.0,23.4,19.0,92,88,83,30.21,30.12,4,0,11,0.00
2013-12-28,34.7,30.8,22.8,33.0,27.9,19.0,95,88,86,30.11,29.97,7,2,16,0.00
2013-12-29,37.5,34.2,29.6,34.0,31.2,27.0,93,89,83,29.98,29.58,4,0,6,0.09
2013-12-30,32.3,15.4,2.5,31.0,10.4,-5.0,94,80,70,30.26,29.56,8,2,15,0.00
2013-12-31,15.8,9.0,2.4,13.0,3.4,-5.0,88,78,64,30.25,30.02,6,1,11,0.00
2014-1-1,13.0,5.6,-4.6,6.0,-0.8,-12.0,85,75,65,30.52,30.15,8,2,15,0.00
2014-1-2,-4.5,-9.2,-11.8,-11.0,-14.7,-17.0,80,77,72,30.51,30.12,8,2,11,0.06